Time;durP1;ratioP1;P1;durP2;ratioP2;P2;SDS_P1;SDS_P2;PMS_P1;PMS_P2;Temp;Humidity;BMP_temperature;BMP_pressure;BME280_temperature;BME280_humidity;BME280_pressure;Samples;Min_cycle;Max_cycle;Signal;HPM_P1;HPM_P2
2023/12/14 00:01:16;;;;;;;17.88;8.18;;;;;;;9.02;66.90;98292.13;6110861;23;20005;-92
2023/12/14 00:03:44;;;;;;;15.77;8.38;;;;;;;9.14;67.12;98299.03;6086187;23;20028;-92
2023/12/14 00:06:10;;;;;;;12.63;7.55;;;;;;;9.09;67.22;98289.94;6110239;23;20059;-92
2023/12/14 00:08:35;;;;;;;14.60;8.05;;;;;;;8.99;67.11;98286.56;6085374;23;19993;-92
2023/12/14 00:11:08;;;;;;;15.65;9.80;;;;;;;9.10;67.04;98312.22;6110152;23;20100;-92
2023/12/14 00:13:34;;;;;;;19.92;14.05;;;;;;;9.07;66.99;98302.84;6109911;23;20060;-92
2023/12/14 00:16:00;;;;;;;14.68;9.77;;;;;;;9.00;67.37;98297.00;6109896;23;20022;-93
2023/12/14 00:18:25;;;;;;;9.57;6.53;;;;;;;9.03;67.32;98301.03;6132477;23;20009;-92
2023/12/14 00:20:52;;;;;;;10.77;6.18;;;;;;;9.10;66.97;98313.00;6134382;23;20002;-91
2023/12/14 00:23:18;;;;;;;12.88;8.02;;;;;;;9.03;67.04;98299.13;6111024;23;20021;-92
2023/12/14 00:25:43;;;;;;;14.73;9.00;;;;;;;9.12;67.77;98310.03;6109885;23;20001;-92
2023/12/14 00:28:09;;;;;;;15.13;8.63;;;;;;;9.07;67.04;98310.91;6135257;23;19993;-93
2023/12/14 00:30:35;;;;;;;16.63;9.13;;;;;;;9.02;67.16;98304.78;6134586;23;20032;-92
2023/12/14 00:33:00;;;;;;;15.07;8.98;;;;;;;8.96;66.98;98303.22;6134109;23;20008;-92
2023/12/14 00:35:26;;;;;;;16.88;7.03;;;;;;;9.07;67.62;98318.94;6110345;23;20006;-93
2023/12/14 00:37:51;;;;;;;9.38;6.45;;;;;;;8.99;67.26;98300.78;6133343;23;20005;-92
2023/12/14 00:40:17;;;;;;;12.27;6.63;;;;;;;9.07;67.10;98315.47;6110570;23;20001;-92
2023/12/14 00:42:43;;;;;;;9.98;6.60;;;;;;;9.02;67.18;98296.72;6110072;23;20001;-92
2023/12/14 00:45:09;;;;;;;10.20;6.30;;;;;;;8.96;66.78;98306.69;6110396;23;20340;-92
2023/12/14 00:47:34;;;;;;;9.80;5.93;;;;;;;8.96;67.31;98309.38;6133563;23;19994;-93
2023/12/14 00:50:00;;;;;;;12.05;6.32;;;;;;;8.87;67.30;98308.41;6133706;23;20428;-93
2023/12/14 00:52:26;;;;;;;10.32;6.03;;;;;;;9.08;67.38;98336.66;6109537;23;20002;-92
2023/12/14 00:54:53;;;;;;;10.05;6.53;;;;;;;8.84;67.55;98308.97;6109744;23;20001;-93
2023/12/14 00:57:18;;;;;;;9.75;5.95;;;;;;;8.82;67.54;98303.91;6134599;23;20008;-92
2023/12/14 00:59:45;;;;;;;11.20;5.68;;;;;;;8.87;67.52;98308.41;6134111;23;20021;-92
2023/12/14 01:02:11;;;;;;;7.00;4.80;;;;;;;9.02;66.82;98308.25;6109556;23;20400;-92
2023/12/14 01:04:37;;;;;;;7.72;5.25;;;;;;;9.06;67.00;98309.28;6111510;23;20088;-92
2023/12/14 01:07:03;;;;;;;9.48;6.60;;;;;;;8.95;66.76;98286.31;6109243;23;20025;-92
2023/12/14 01:09:29;;;;;;;9.43;6.05;;;;;;;8.92;66.98;98281.50;6135270;23;20001;-92
2023/12/14 01:11:56;;;;;;;11.68;7.00;;;;;;;9.03;67.21;98287.59;6109937;23;20053;-92
2023/12/14 01:14:21;;;;;;;7.88;5.60;;;;;;;8.93;67.36;98280.44;6107804;23;20005;-92
2023/12/14 01:16:47;;;;;;;10.73;6.68;;;;;;;9.03;66.70;98291.06;6105369;23;20029;-93
2023/12/14 01:19:13;;;;;;;11.85;6.15;;;;;;;9.00;66.94;98290.84;6057269;23;20001;-92
2023/12/14 01:21:38;;;;;;;8.65;5.60;;;;;;;8.99;66.92;98286.56;6104961;23;20026;-92
2023/12/14 01:24:05;;;;;;;11.60;7.28;;;;;;;9.07;67.10;98302.84;6081347;23;20382;-93
2023/12/14 01:26:31;;;;;;;9.48;6.80;;;;;;;9.01;66.89;98290.56;6105534;23;20002;-93
2023/12/14 01:28:58;;;;;;;9.07;6.18;;;;;;;9.19;66.42;98307.78;6104541;23;20085;-92
2023/12/14 01:31:26;;;;;;;8.80;5.65;;;;;;;9.03;66.89;98291.06;6082488;23;20012;-93
2023/12/14 01:33:51;;;;;;;9.93;6.00;;;;;;;9.04;67.22;98286.50;6104694;23;19998;-92
2023/12/14 01:36:24;;;;;;;7.18;5.03;;;;;;;9.06;66.96;98287.00;6081206;23;20006;-93
2023/12/14 01:38:50;;;;;;;5.82;4.18;;;;;;;9.06;66.57;98279.75;6105230;23;20006;-92
2023/12/14 01:41:16;;;;;;;9.35;4.70;;;;;;;9.18;66.48;98294.69;6103207;23;20006;-91
2023/12/14 01:43:42;;;;;;;8.18;4.53;;;;;;;9.18;66.64;98287.41;6105219;23;20005;-92
2023/12/14 01:46:07;;;;;;;7.85;4.32;;;;;;;9.16;66.61;98280.72;6104212;23;20001;-92
2023/12/14 01:48:33;;;;;;;5.15;3.80;;;;;;;9.23;66.06;98303.44;6104122;23;19998;-92
2023/12/14 01:50:59;;;;;;;6.60;4.43;;;;;;;9.31;65.91;98302.03;6103869;23;20433;-93
2023/12/14 01:53:24;;;;;;;6.28;3.97;;;;;;;9.35;65.45;98300.38;6081869;23;20005;-92
2023/12/14 01:55:50;;;;;;;7.18;3.92;;;;;;;9.44;65.54;98306.72;6103949;23;20318;-91
2023/12/14 01:58:16;;;;;;;5.53;3.65;;;;;;;9.35;65.18;98284.25;6080169;23;20433;-91
2023/12/14 02:00:41;;;;;;;5.47;3.53;;;;;;;9.45;64.79;98294.88;6081074;23;19997;-91
2023/12/14 02:03:07;;;;;;;4.65;3.10;;;;;;;9.36;64.85;98272.44;6128093;23;20033;-93
2023/12/14 02:05:32;;;;;;;4.18;2.97;;;;;;;9.29;64.87;98261.22;6105615;23;20068;-93
2023/12/14 02:08:00;;;;;;;3.70;2.80;;;;;;;9.32;64.50;98260.66;6103608;23;19998;-92
2023/12/14 02:10:26;;;;;;;4.93;2.95;;;;;;;9.42;64.89;98275.84;6103542;23;20006;-94
2023/12/14 02:12:51;;;;;;;6.28;3.95;;;;;;;9.51;65.04;98306.38;6080129;23;20429;-93
2023/12/14 02:15:17;;;;;;;6.13;4.07;;;;;;;9.20;65.21;98263.75;6119318;23;20022;-91
2023/12/14 02:17:43;;;;;;;7.40;4.43;;;;;;;9.21;65.49;98268.03;6109179;23;20033;-91
2023/12/14 02:20:09;;;;;;;8.88;4.68;;;;;;;9.40;64.98;98300.34;6108488;23;20012;-91
2023/12/14 02:22:48;;;;;;;6.28;3.75;;;;;;;9.19;65.53;98270.19;6109652;23;20432;-93
2023/12/14 02:25:14;;;;;;;6.00;3.63;;;;;;;9.37;65.58;98302.78;6111422;23;20021;-91
2023/12/14 02:27:40;;;;;;;7.22;3.55;;;;;;;9.12;65.72;98269.75;6132746;23;20047;-92
2023/12/14 02:30:06;;;;;;;6.82;4.30;;;;;;;9.25;65.71;98287.84;6133796;23;20008;-93
2023/12/14 02:32:31;;;;;;;5.25;3.63;;;;;;;9.12;66.20;98250.16;6108936;23;20006;-93
2023/12/14 02:34:57;;;;;;;8.25;4.40;;;;;;;9.12;65.57;98263.59;6109181;23;20021;-92
2023/12/14 02:37:23;;;;;;;6.22;4.00;;;;;;;9.15;65.94;98269.19;6134111;23;20041;-92
2023/12/14 02:39:48;;;;;;;9.90;4.13;;;;;;;9.09;65.70;98257.72;6108089;23;20006;-92
2023/12/14 02:42:14;;;;;;;6.40;4.13;;;;;;;9.17;65.99;98258.16;6133844;23;20001;-92
2023/12/14 02:44:40;;;;;;;11.48;4.82;;;;;;;9.15;66.32;98266.50;6109104;23;20017;-92
2023/12/14 02:47:05;;;;;;;7.25;4.57;;;;;;;9.18;65.94;98254.41;6132538;23;20002;-92
2023/12/14 02:49:31;;;;;;;5.80;3.90;;;;;;;9.15;66.04;98257.63;6108000;23;20032;-91
2023/12/14 02:51:57;;;;;;;6.70;3.53;;;;;;;9.09;65.79;98254.22;6108038;23;20068;-91
2023/12/14 02:54:23;;;;;;;6.32;3.80;;;;;;;9.08;65.75;98260.66;6107923;23;20004;-91
2023/12/14 02:56:48;;;;;;;6.22;3.72;;;;;;;9.02;65.95;98241.13;6133835;23;20061;-94
2023/12/14 02:59:14;;;;;;;6.88;3.92;;;;;;;9.22;66.21;98266.16;6107631;23;19997;-91
2023/12/14 03:01:39;;;;;;;6.25;3.65;;;;;;;9.05;65.78;98232.50;6109055;23;20061;-91
2023/12/14 03:04:07;;;;;;;6.90;3.83;;;;;;;9.13;65.53;98239.16;6109512;23;20086;-91
2023/12/14 03:06:33;;;;;;;5.90;3.70;;;;;;;9.19;65.42;98240.66;6133276;23;20028;-91
2023/12/14 03:08:59;;;;;;;5.72;3.50;;;;;;;9.24;65.57;98245.19;6108146;23;20001;-92
2023/12/14 03:11:25;;;;;;;5.93;3.80;;;;;;;9.28;65.50;98255.06;6133144;23;20001;-91
2023/12/14 03:13:52;;;;;;;4.97;2.90;;;;;;;9.30;65.67;98257.47;6109002;23;20005;-92
2023/12/14 03:16:18;;;;;;;6.07;3.65;;;;;;;9.25;65.50;98234.13;6108098;23;20021;-93
2023/12/14 03:18:44;;;;;;;6.75;3.78;;;;;;;9.22;65.61;98239.31;6108722;23;20006;-92
2023/12/14 03:21:10;;;;;;;5.13;3.00;;;;;;;9.13;65.72;98230.28;6109575;23;20005;-92
2023/12/14 03:23:36;;;;;;;5.18;3.55;;;;;;;9.21;65.92;98261.88;6108751;23;20005;-93
2023/12/14 03:26:02;;;;;;;7.43;4.53;;;;;;;9.02;66.06;98221.53;6107938;23;20061;-92
2023/12/14 03:28:27;;;;;;;5.68;3.35;;;;;;;9.14;66.15;98235.34;6133051;23;19997;-92
2023/12/14 03:30:53;;;;;;;6.57;4.03;;;;;;;9.14;65.65;98232.69;6132636;23;20356;-91
2023/12/14 03:33:19;;;;;;;5.97;3.80;;;;;;;9.20;65.66;98214.63;6109199;23;20009;-92
2023/12/14 03:35:46;;;;;;;6.53;3.72;;;;;;;9.17;65.87;98218.69;6108769;23;20029;-92
2023/12/14 03:38:13;;;;;;;6.63;3.60;;;;;;;9.26;65.74;98249.19;6132664;23;20006;-92
2023/12/14 03:40:39;;;;;;;8.38;3.70;;;;;;;9.15;65.77;98241.53;6132651;23;20459;-90
2023/12/14 03:43:04;;;;;;;12.25;5.82;;;;;;;9.24;65.89;98247.88;6132635;23;20005;-92
2023/12/14 03:45:30;;;;;;;9.38;5.38;;;;;;;9.19;65.74;98229.13;6108701;23;20059;-94
2023/12/14 03:47:56;;;;;;;10.50;5.10;;;;;;;9.18;65.98;98231.00;6108133;23;20020;-92
2023/12/14 03:50:22;;;;;;;9.82;5.00;;;;;;;9.20;65.16;98225.38;6108569;23;20001;-91
2023/12/14 03:52:47;;;;;;;7.07;4.90;;;;;;;9.34;65.18;98241.56;6109433;23;20428;-93
2023/12/14 03:55:15;;;;;;;6.90;3.45;;;;;;;9.24;65.17;98229.06;6109031;23;20004;-93
2023/12/14 03:57:40;;;;;;;6.28;3.92;;;;;;;9.36;65.04;98242.88;6108967;23;20440;-93
2023/12/14 04:00:09;;;;;;;8.38;4.25;;;;;;;9.38;64.54;98237.22;6108024;23;20064;-91
2023/12/14 04:02:35;;;;;;;6.93;3.97;;;;;;;9.44;64.58;98241.44;6085056;23;20416;-93
2023/12/14 04:05:01;;;;;;;7.93;4.03;;;;;;;9.64;63.93;98257.28;6133709;23;20004;-93
2023/12/14 04:07:26;;;;;;;5.68;3.80;;;;;;;9.50;63.61;98216.91;6132714;23;20029;-93
2023/12/14 04:09:52;;;;;;;5.63;3.17;;;;;;;9.61;63.64;98230.22;6108075;23;20432;-92
2023/12/14 04:12:18;;;;;;;5.35;3.42;;;;;;;9.69;63.18;98224.16;6133474;23;20076;-93
2023/12/14 04:14:44;;;;;;;5.45;3.58;;;;;;;9.75;63.32;98225.69;6108894;23;20053;-92
2023/12/14 04:17:10;;;;;;;5.75;3.20;;;;;;;9.79;62.89;98228.59;6134285;23;20002;-93
2023/12/14 04:19:38;;;;;;;4.28;3.05;;;;;;;9.78;62.64;98208.97;6134125;23;20009;-92
2023/12/14 04:22:04;;;;;;;6.82;4.50;;;;;;;9.85;62.61;98214.78;6133627;23;20001;-93
2023/12/14 04:24:30;;;;;;;14.00;3.85;;;;;;;9.83;62.78;98216.97;6110145;23;20032;-94
2023/12/14 04:26:56;;;;;;;15.40;4.03;;;;;;;9.83;63.21;98222.34;6110641;23;19993;-92
2023/12/14 04:29:21;;;;;;;5.85;3.78;;;;;;;9.73;63.52;98219.00;6133075;23;20002;-92
2023/12/14 04:31:48;;;;;;;5.22;3.67;;;;;;;9.77;63.71;98234.25;6161279;23;20061;-94
2023/12/14 04:34:18;;;;;;;8.35;3.80;;;;;;;9.70;63.23;98233.84;6137963;23;20001;-95
2023/12/14 04:36:45;;;;;;;7.53;3.75;;;;;;;9.70;63.19;98221.19;6110979;23;19998;-92
2023/12/14 04:39:11;;;;;;;10.40;3.83;;;;;;;9.84;63.29;98258.09;6134923;23;19998;-92
2023/12/14 04:41:39;;;;;;;6.15;3.20;;;;;;;9.81;63.25;98250.59;6109268;23;20004;-91
2023/12/14 04:44:04;;;;;;;9.13;3.75;;;;;;;9.83;63.36;98237.69;6110200;23;20005;-91
2023/12/14 04:46:30;;;;;;;7.28;3.50;;;;;;;9.62;63.47;98211.09;6109150;23;20450;-91
2023/12/14 04:48:56;;;;;;;4.32;2.35;;;;;;;9.77;62.47;98230.78;6109224;23;20425;-90
2023/12/14 04:51:21;;;;;;;3.88;2.20;;;;;;;10.01;61.47;98249.53;6132709;23;20017;-92
2023/12/14 04:53:47;;;;;;;8.10;4.30;;;;;;;9.89;62.18;98223.06;6109309;23;20009;-91
2023/12/14 04:56:13;;;;;;;9.98;4.70;;;;;;;10.06;61.96;98246.75;6110196;23;20436;-91
2023/12/14 04:58:39;;;;;;;3.50;2.50;;;;;;;10.01;60.61;98228.00;6133884;23;19989;-94
2023/12/14 05:01:05;;;;;;;8.43;4.53;;;;;;;10.16;61.78;98254.66;6109057;23;20006;-92
2023/12/14 05:03:34;;;;;;;8.30;5.85;;;;;;;10.22;61.96;98258.06;6143056;23;20005;-96
2023/12/14 05:06:07;;;;;;;10.98;7.03;;;;;;;10.25;61.83;98254.78;6122512;23;20006;-96
2023/12/14 05:08:35;;;;;;;6.43;4.00;;;;;;;10.07;61.68;98224.94;6141182;23;20033;-96
2023/12/14 05:11:13;;;;;;;;;;;;;;;;;;;;;
2023/12/14 05:13:40;;;;;;;14.48;5.13;;;;;;;10.02;62.01;98224.22;6120172;23;20032;-96
2023/12/14 05:16:13;;;;;;;13.38;5.15;;;;;;;10.05;62.21;98239.78;6136352;23;20087;-94
2023/12/14 05:18:39;;;;;;;8.80;4.93;;;;;;;10.09;62.49;98246.16;6160517;23;20009;-94
2023/12/14 05:21:05;;;;;;;10.65;5.85;;;;;;;10.01;62.62;98225.31;6137640;23;19989;-96
2023/12/14 05:23:34;;;;;;;12.75;6.47;;;;;;;9.99;62.55;98212.16;6112850;23;20005;-95
2023/12/14 05:26:04;;;;;;;19.33;7.20;;;;;;;9.98;62.49;98221.34;6114003;23;20001;-94
2023/12/14 05:28:29;;;;;;;19.20;10.10;;;;;;;10.03;62.81;98239.28;6113837;23;20344;-95
2023/12/14 05:30:59;;;;;;;13.65;6.80;;;;;;;9.94;62.45;98227.56;6114057;23;20001;-95
2023/12/14 05:33:25;;;;;;;18.33;8.40;;;;;;;10.01;62.73;98234.19;6120090;23;20005;-95
2023/12/14 05:36:02;;;;;;;13.05;7.38;;;;;;;10.05;62.67;98239.78;6115172;23;20058;-96
2023/12/14 05:38:29;;;;;;;14.52;6.70;;;;;;;10.00;62.97;98226.41;6140938;23;20009;-94
2023/12/14 05:41:02;;;;;;;17.17;7.05;;;;;;;10.11;62.04;98238.59;6139437;23;20005;-96
2023/12/14 05:43:28;;;;;;;17.33;6.57;;;;;;;10.11;62.43;98225.16;6141099;23;20060;-96
2023/12/14 05:45:53;;;;;;;22.40;8.50;;;;;;;10.09;62.56;98227.34;6113431;23;20005;-96
2023/12/14 05:48:19;;;;;;;17.23;9.30;;;;;;;10.08;62.63;98239.19;6115784;23;20068;-95
2023/12/14 05:50:46;;;;;;;21.75;10.43;;;;;;;10.07;62.24;98233.00;6116726;23;20007;-96
2023/12/14 05:53:15;;;;;;;19.67;10.20;;;;;;;10.16;62.49;98240.41;6141330;23;20009;-95
2023/12/14 05:55:47;;;;;;;27.63;10.88;;;;;;;10.19;62.07;98226.34;6145155;23;20060;-95
2023/12/14 05:58:28;;;;;;;18.90;8.98;;;;;;;10.27;61.83;98229.19;6171921;23;19993;-96
2023/12/14 06:00:57;;;;;;;19.15;8.27;;;;;;;10.32;61.63;98234.50;6168319;23;20065;-96
2023/12/14 06:03:37;;;;;;;15.55;7.20;;;;;;;10.35;60.94;98233.13;6148049;23;20021;-96
2023/12/14 06:06:07;;;;;;;9.77;4.68;;;;;;;10.66;59.70;98256.81;6088903;23;20006;-96
2023/12/14 06:09:07;;;;;;;5.60;3.80;;;;;;;10.78;58.90;98248.28;6086693;23;20009;-96
2023/12/14 06:11:34;;;;;;;7.65;4.50;;;;;;;10.92;57.76;98254.47;6110639;23;20009;-96
2023/12/14 06:25:38;;;;;;;4.95;2.80;;;;;;;11.61;55.16;98235.56;6187042;22;20052;-94
2023/12/14 06:28:07;;;;;;;9.52;3.67;;;;;;;11.78;54.88;98242.22;6168510;23;20020;-93
2023/12/14 06:41:19;;;;;;;6.97;3.78;;;;;;;12.34;53.65;98279.50;6150783;23;20014;-95
2023/12/14 06:43:45;;;;;;;9.93;3.60;;;;;;;12.37;53.00;98269.19;6098748;22;20022;-95
2023/12/14 06:46:13;;;;;;;7.88;2.97;;;;;;;12.40;52.43;98255.09;6146525;23;20008;-95
2023/12/14 06:48:39;;;;;;;4.85;2.65;;;;;;;12.59;52.41;98271.09;6170935;23;19997;-94
2023/12/14 06:51:04;;;;;;;5.90;3.58;;;;;;;12.58;51.97;98246.00;6195064;23;20088;-95
2023/12/14 06:53:39;;;;;;;6.50;2.97;;;;;;;12.74;51.62;98251.78;6171799;23;20020;-93
2023/12/14 06:56:05;;;;;;;6.80;3.53;;;;;;;12.88;51.52;98276.00;6170607;23;20420;-94
2023/12/14 06:58:31;;;;;;;29.38;23.58;;;;;;;12.88;51.65;98271.38;6147006;23;20005;-94
2023/12/14 07:00:57;;;;;;;7.43;4.38;;;;;;;12.97;51.28;98276.84;6144987;23;20008;-95
2023/12/14 07:03:23;;;;;;;13.73;5.38;;;;;;;12.90;51.13;98269.19;6172225;23;20003;-91
2023/12/14 07:05:49;;;;;;;9.10;6.30;;;;;;;13.06;50.93;98277.69;6170443;23;20084;-96
2023/12/14 07:08:18;;;;;;;4.97;3.47;;;;;;;13.20;50.62;98284.88;6150604;23;19997;-96
2023/12/14 07:13:32;;;;;;;9.25;4.53;;;;;;;13.34;50.19;98285.59;6183487;23;19997;-94
2023/12/14 07:15:58;;;;;;;5.82;3.60;;;;;;;13.41;50.21;98285.94;6146596;23;20008;-95
2023/12/14 07:18:27;;;;;;;7.18;2.70;;;;;;;13.44;49.66;98274.50;6144421;23;20032;-95
2023/12/14 07:20:52;;;;;;;6.82;2.67;;;;;;;13.54;49.92;98290.44;6168391;23;20004;-96
2023/12/14 07:23:18;;;;;;;5.13;2.60;;;;;;;13.56;49.69;98289.34;6171583;23;20000;-96
2023/12/14 07:25:49;;;;;;;7.18;4.10;;;;;;;13.64;49.28;98296.66;6170188;23;20288;-96
2023/12/14 07:28:15;;;;;;;11.87;4.10;;;;;;;13.75;49.15;98312.25;6173008;23;20000;-95
2023/12/14 07:30:46;;;;;;;10.30;4.05;;;;;;;13.91;49.08;98336.19;6148045;23;20005;-96
2023/12/14 07:33:12;;;;;;;9.13;4.03;;;;;;;13.90;48.47;98319.16;6148223;23;20431;-96
2023/12/14 07:35:38;;;;;;;10.70;5.75;;;;;;;13.82;49.53;98297.47;6170481;23;20290;-96
2023/12/14 07:38:17;;;;;;;28.38;7.07;;;;;;;13.93;49.17;98315.81;6176265;23;19980;-96
2023/12/14 07:40:46;;;;;;;27.90;9.98;;;;;;;13.93;50.30;98332.03;6201467;23;20032;-96
2023/12/14 07:43:12;;;;;;;29.42;11.75;;;;;;;13.88;51.33;98321.38;6171175;23;20019;-96
2023/12/14 07:45:38;;;;;;;59.05;27.52;;;;;;;13.78;51.22;98327.09;6146823;23;20012;-96
2023/12/14 07:48:12;;;;;;;63.50;21.73;;;;;;;13.58;52.66;98327.69;6173251;23;20308;-95
2023/12/14 07:50:43;;;;;;;36.72;16.70;;;;;;;13.43;53.87;98364.06;6150995;23;20008;-96
2023/12/14 07:53:17;;;;;;;32.78;16.58;;;;;;;13.37;53.61;98352.56;6151130;23;20000;-96
2023/12/14 07:55:49;;;;;;;47.15;18.88;;;;;;;13.22;53.90;98363.75;6200412;23;20008;-96
2023/12/14 07:58:16;;;;;;;36.95;19.25;;;;;;;13.17;54.06;98375.50;6112397;23;20492;-96
2023/12/14 08:00:45;;;;;;;35.63;19.15;;;;;;;12.85;54.83;98347.66;6108281;23;20013;-96
2023/12/14 08:03:19;;;;;;;25.08;14.65;;;;;;;12.51;54.94;98351.75;6110025;23;20044;-96
2023/12/14 08:05:45;;;;;;;16.83;7.93;;;;;;;12.35;53.02;98345.09;6133621;23;20002;-94
2023/12/14 08:08:11;;;;;;;10.90;7.30;;;;;;;12.23;52.25;98380.72;6105779;23;20005;-94
2023/12/14 08:10:37;;;;;;;13.23;7.38;;;;;;;11.90;52.96;98383.56;6130589;23;20275;-95
2023/12/14 08:13:07;;;;;;;18.17;7.53;;;;;;;11.33;53.36;98408.09;6107851;23;20001;-95
2023/12/14 08:15:37;;;;;;;13.60;8.93;;;;;;;10.95;54.27;98399.31;6110358;23;20002;-95
2023/12/14 08:18:10;;;;;;;14.50;9.95;;;;;;;10.58;55.18;98408.22;6108422;23;20006;-96
2023/12/14 08:20:46;;;;;;;15.02;9.77;;;;;;;10.23;55.55;98402.22;6112276;23;20002;-95
2023/12/14 08:23:27;;;;;;;15.38;10.63;;;;;;;9.97;56.70;98417.91;6117924;23;20001;-95
2023/12/14 08:26:08;;;;;;;12.50;9.13;;;;;;;9.85;56.56;98437.94;6141782;23;20037;-96
2023/12/14 08:28:36;;;;;;;15.63;9.40;;;;;;;9.68;57.18;98453.72;6140600;23;20001;-95
2023/12/14 08:31:23;;;;;;;12.55;8.85;;;;;;;9.56;57.59;98459.47;6155065;23;19995;-96
2023/12/14 08:33:55;;;;;;;13.48;9.43;;;;;;;9.86;57.23;98487.94;6176094;23;20012;-96
2023/12/14 08:36:27;;;;;;;15.20;8.88;;;;;;;9.89;56.62;98475.81;6203340;23;20066;-95
2023/12/14 08:38:58;;;;;;;14.20;8.98;;;;;;;9.88;56.81;98480.41;6151693;23;20005;-95
2023/12/14 08:41:29;;;;;;;14.45;8.68;;;;;;;9.94;56.72;98466.88;6155784;23;20008;-95
2023/12/14 08:43:59;;;;;;;13.18;8.68;;;;;;;9.90;57.06;98474.75;6177971;23;20004;-96
2023/12/14 08:49:18;;;;;;;19.17;10.35;;;;;;;10.24;57.00;98484.56;6230505;22;20024;-96
2023/12/14 08:55:20;;;;;;;;;;;;;;;;;;;;;
2023/12/14 08:57:57;;;;;;;15.32;9.35;;;;;;;10.84;55.56;98510.97;6171687;23;20027;-95
2023/12/14 09:00:32;;;;;;;26.25;11.68;;;;;;;10.86;56.06;98504.19;6120859;23;20353;-96
2023/12/14 09:03:02;;;;;;;27.75;14.07;;;;;;;10.97;56.04;98502.16;6118530;23;20032;-94
2023/12/14 09:05:28;;;;;;;29.80;15.27;;;;;;;11.06;56.03;98494.22;6149761;23;20020;-93
2023/12/14 09:07:56;;;;;;;30.40;16.08;;;;;;;11.12;55.72;98493.03;6119969;23;19994;-95
2023/12/14 09:10:22;;;;;;;22.35;13.32;;;;;;;11.07;56.10;98522.75;6141670;23;19997;-96
2023/12/14 09:12:48;;;;;;;25.15;14.25;;;;;;;11.31;55.91;98538.84;6118364;23;20005;-95
2023/12/14 09:15:19;;;;;;;435.85;256.88;;;;;;;11.43;55.84;98566.13;6121404;23;20017;-95
2023/12/14 09:18:00;;;;;;;;;;;;;;;;;;;;;
2023/12/14 09:20:34;;;;;;;591.93;346.30;;;;;;;11.24;55.79;98541.88;6154660;23;20033;-95
2023/12/14 10:11:29;;;;;;;17.42;10.45;;;;;;;12.66;53.78;98584.75;6139655;23;20032;-94
2023/12/14 10:13:58;;;;;;;22.08;12.40;;;;;;;12.71;53.82;98596.22;6139073;23;20008;-91
2023/12/14 10:16:42;;;;;;;29.05;16.70;;;;;;;12.66;53.63;98590.94;6120381;23;20027;-93
2023/12/14 10:19:10;;;;;;;26.42;12.88;;;;;;;12.59;53.37;98560.03;6144933;23;20008;-94
2023/12/14 10:21:39;;;;;;;22.08;14.60;;;;;;;12.62;53.67;98576.44;6142603;23;20005;-94
2023/12/14 10:24:08;;;;;;;20.67;10.85;;;;;;;12.78;53.23;98589.63;6117578;23;19997;-93
2023/12/14 10:26:37;;;;;;;29.77;18.63;;;;;;;12.88;52.93;98568.59;6143671;23;20025;-95
2023/12/14 10:29:09;;;;;;;24.65;12.60;;;;;;;13.10;52.94;98578.66;6115204;23;20005;-94
2023/12/14 10:31:38;;;;;;;24.30;11.77;;;;;;;13.16;52.56;98563.13;6116743;23;20008;-94
2023/12/14 10:34:07;;;;;;;24.05;11.52;;;;;;;13.34;51.68;98569.47;6118427;23;20000;-93
2023/12/14 10:46:00;;;;;;;;;;;;;;;;;;;;;
2023/12/14 10:48:39;;;;;;;18.45;10.25;;;;;;;13.38;52.27;98566.97;6169441;23;20032;-92
2023/12/14 10:51:11;;;;;;;22.55;12.30;;;;;;;13.39;52.19;98566.66;6119253;23;20080;-94
2023/12/14 11:17:22;;;;;;;9.32;5.18;;;;;;;13.74;52.76;98588.56;6211580;23;20051;-91
2023/12/14 11:20:33;;;;;;;12.27;6.78;;;;;;;13.79;52.53;98593.03;6146244;23;20016;-91
2023/12/14 11:23:18;;;;;;;11.25;6.45;;;;;;;13.72;52.31;98569.13;6200397;23;20340;-91
2023/12/14 11:25:45;;;;;;;13.48;6.22;;;;;;;13.86;52.38;98582.56;6172327;23;20001;-92
2023/12/14 11:28:19;;;;;;;9.45;5.55;;;;;;;13.96;52.24;98582.31;6156520;23;20001;-88
2023/12/14 11:30:55;;;;;;;12.45;6.30;;;;;;;14.03;52.17;98614.34;6171184;23;20000;-89
2023/12/14 11:33:21;;;;;;;13.45;7.97;;;;;;;13.88;51.79;98581.16;6164510;23;20390;-90
2023/12/14 11:36:09;;;;;;;;;;;;;;;;;;;;;
2023/12/14 11:38:35;;;;;;;9.75;7.50;;;;;;;13.98;52.17;98623.41;6175852;23;20039;-90
2023/12/14 11:41:04;;;;;;;18.10;10.73;;;;;;;13.92;52.38;98617.34;6140078;23;20107;-89
2023/12/14 11:43:30;;;;;;;12.27;8.07;;;;;;;13.87;51.72;98601.19;6144009;23;20001;-90
2023/12/14 11:45:55;;;;;;;12.18;8.63;;;;;;;13.84;52.04;98609.13;6143159;23;20011;-90
2023/12/14 11:48:35;;;;;;;12.90;7.82;;;;;;;13.99;52.39;98610.69;6166862;23;19987;-91
2023/12/14 11:52:21;;;;;;;;;;;;;;;;;;;;;
2023/12/14 11:55:58;;;;;;;12.13;7.97;;;;;;;13.80;53.32;98617.09;6064914;23;20005;-91
2023/12/14 11:58:24;;;;;;;16.83;10.63;;;;;;;13.37;54.39;98601.34;6093678;23;20007;-92
2023/12/14 12:00:50;;;;;;;10.55;6.60;;;;;;;13.36;54.87;98621.34;6081390;23;20081;-94
2023/12/14 12:06:03;;;;;;;13.45;6.88;;;;;;;13.12;55.81;98589.16;6173201;23;20001;-91
2023/12/14 12:14:52;;;;;;;13.23;7.43;;;;;;;13.35;56.03;98598.13;6183353;22;20062;-93
2023/12/14 12:27:52;;;;;;;11.25;6.80;;;;;;;13.45;55.35;98611.41;6012177;23;20059;-94
2023/12/14 12:30:39;;;;;;;13.82;7.53;;;;;;;13.66;55.62;98649.59;6033826;23;20011;-95
2023/12/14 12:33:22;;;;;;;12.75;7.53;;;;;;;13.67;55.29;98659.31;6195615;23;20000;-93
2023/12/14 12:35:54;;;;;;;10.23;7.27;;;;;;;13.48;56.13;98650.56;6173632;23;20079;-93
2023/12/14 12:38:20;;;;;;;15.07;9.57;;;;;;;13.49;55.93;98660.28;6146468;23;20641;-90
2023/12/14 12:40:46;;;;;;;15.90;8.57;;;;;;;13.53;55.82;98637.75;6168381;23;20040;-90
2023/12/14 12:43:44;;;;;;;14.45;7.93;;;;;;;13.61;55.63;98635.38;6194456;23;19996;-91
2023/12/14 12:46:12;;;;;;;13.43;8.30;;;;;;;13.70;55.45;98658.72;6191015;23;20001;-91
2023/12/14 12:48:41;;;;;;;15.90;8.07;;;;;;;13.58;55.55;98644.13;6143159;23;20041;-91
2023/12/14 12:51:07;;;;;;;13.02;8.52;;;;;;;13.68;55.38;98644.69;6218976;23;20005;-92
2023/12/14 12:53:33;;;;;;;16.13;8.48;;;;;;;13.76;55.69;98651.28;6167198;23;20000;-91
2023/12/14 12:56:12;;;;;;;16.25;8.55;;;;;;;13.74;55.55;98651.56;6144058;23;20032;-91
2023/12/14 12:58:39;;;;;;;12.27;8.50;;;;;;;13.61;55.57;98624.56;6195272;23;20469;-91
2023/12/14 13:01:05;;;;;;;25.77;13.80;;;;;;;13.67;55.53;98642.28;6144220;23;20062;-92
2023/12/14 13:03:31;;;;;;;19.08;11.07;;;;;;;13.63;55.61;98646.69;6191773;23;20000;-92
2023/12/14 13:06:00;;;;;;;39.50;23.92;;;;;;;13.52;56.27;98649.66;6193324;23;20083;-91
2023/12/14 13:08:38;;;;;;;22.40;11.05;;;;;;;13.58;56.53;98673.88;6200018;23;20003;-90
2023/12/14 13:11:04;;;;;;;21.77;13.27;;;;;;;13.47;56.43;98657.88;6171950;23;20501;-89
2023/12/14 13:13:32;;;;;;;18.58;11.88;;;;;;;13.44;56.36;98644.16;6166939;23;19997;-90
2023/12/14 13:16:04;;;;;;;17.98;8.77;;;;;;;13.60;56.54;98664.34;6196222;23;20080;-95
2023/12/14 13:21:07;;;;;;;12.43;8.10;;;;;;;13.11;57.25;98665.94;6185600;23;20004;-93
2023/12/14 13:23:57;;;;;;;;;;;;;;;;;;;;;
2023/12/14 13:27:21;;;;;;;34.05;20.10;;;;;;;13.07;57.62;98703.59;6173162;23;20008;-94
2023/12/14 13:29:59;;;;;;;14.25;7.63;;;;;;;12.84;58.00;98681.06;6200606;23;20006;-93
2023/12/14 13:32:35;;;;;;;10.32;6.53;;;;;;;12.62;58.91;98689.88;6173693;23;20004;-94
2023/12/14 13:35:02;;;;;;;13.65;7.85;;;;;;;12.60;58.87;98667.75;6204154;23;20004;-91
2023/12/14 13:37:28;;;;;;;12.30;6.95;;;;;;;12.66;59.21;98681.97;6173880;23;20055;-95
2023/12/14 13:39:53;;;;;;;9.52;6.28;;;;;;;12.44;59.65;98674.53;6149585;23;20419;-95
2023/12/14 13:42:19;;;;;;;8.50;5.95;;;;;;;12.47;59.76;98679.31;6142946;23;20005;-95
2023/12/14 13:44:48;;;;;;;11.40;6.15;;;;;;;12.51;59.72;98689.25;6141360;23;20072;-95
2023/12/14 13:47:49;;;;;;;;;;;;;;;;;;;;;
2023/12/14 13:50:44;;;;;;;14.25;8.00;;;;;;;12.30;60.58;98691.50;6205898;23;20016;-95
2023/12/14 13:53:10;;;;;;;18.75;9.23;;;;;;;12.21;61.25;98679.78;6174002;23;20079;-95
2023/12/14 13:55:35;;;;;;;12.80;7.43;;;;;;;12.12;61.36;98682.38;6146339;23;20004;-96
2023/12/14 13:58:05;;;;;;;20.10;9.13;;;;;;;12.09;61.42;98691.03;6171717;23;20000;-96
2023/12/14 14:00:34;;;;;;;13.85;7.95;;;;;;;12.10;61.26;98681.88;6184601;23;20005;-93
2023/12/14 14:03:03;;;;;;;13.15;7.45;;;;;;;12.09;61.17;98674.84;6135457;23;20025;-91
2023/12/14 14:05:44;;;;;;;10.25;6.70;;;;;;;12.07;61.56;98695.13;6135005;23;20013;-92
2023/12/14 14:08:12;;;;;;;10.75;6.40;;;;;;;12.18;61.18;98715.47;6137057;23;20002;-92